Time;durP1;ratioP1;P1;durP2;ratioP2;P2;SDS_P1;SDS_P2;PMS_P1;PMS_P2;Temp;Humidity;BMP_temperature;BMP_pressure;BME280_temperature;BME280_humidity;BME280_pressure;Samples;Min_cycle;Max_cycle;Signal;HPM_P1;HPM_P2
2022/10/12 00:02:20;;;;;;;20.52;8.73;;;;;;;;;;5009124;28;20032;-80
2022/10/12 00:04:46;;;;;;;14.38;8.02;;;;;;;;;;4995345;28;20025;-80
2022/10/12 00:07:11;;;;;;;23.45;8.30;;;;;;;;;;4993914;28;20033;-81
2022/10/12 00:09:36;;;;;;;19.27;8.95;;;;;;;;;;5008901;28;20028;-80
2022/10/12 00:12:02;;;;;;;16.15;7.53;;;;;;;;;;4995383;28;20712;-81
2022/10/12 00:14:27;;;;;;;14.40;8.38;;;;;;;;;;4997334;28;20056;-81
2022/10/12 00:16:52;;;;;;;17.85;7.95;;;;;;;;;;5002250;28;20124;-81
2022/10/12 00:19:18;;;;;;;16.05;8.05;;;;;;;;;;5004530;28;20054;-81
2022/10/12 00:21:43;;;;;;;14.23;8.40;;;;;;;;;;5005146;28;20014;-81
2022/10/12 00:24:08;;;;;;;19.85;9.30;;;;;;;;;;5003319;28;20030;-80
2022/10/12 00:26:34;;;;;;;14.98;8.15;;;;;;;;;;5003541;28;20033;-81
2022/10/12 00:29:01;;;;;;;21.25;8.27;;;;;;;;;;5005119;28;20050;-81
2022/10/12 00:31:27;;;;;;;15.02;8.02;;;;;;;;;;5004510;28;20034;-81
2022/10/12 00:33:53;;;;;;;15.02;8.80;;;;;;;;;;5002882;28;20457;-82
2022/10/12 00:36:23;;;;;;;15.80;8.77;;;;;;;;;;4999208;28;20080;-81
2022/10/12 00:38:49;;;;;;;15.05;7.97;;;;;;;;;;4992997;28;20441;-81
2022/10/12 00:41:16;;;;;;;18.08;8.73;;;;;;;;;;4997619;28;20117;-82
2022/10/12 00:43:43;;;;;;;20.08;8.93;;;;;;;;;;4997856;28;20224;-80
2022/10/12 00:46:40;;;;;;;14.70;8.65;;;;;;;;;;4996826;28;20041;-81
2022/10/12 00:49:14;;;;;;;15.68;7.82;;;;;;;;;;4992733;28;20169;-81
2022/10/12 00:51:42;;;;;;;18.33;8.30;;;;;;;;;;4993708;28;20045;-81
2022/10/12 00:54:14;;;;;;;13.65;7.75;;;;;;;;;;4993224;28;20034;-81
2022/10/12 00:56:42;;;;;;;19.33;7.82;;;;;;;;;;4993826;28;20461;-81
2022/10/12 00:59:11;;;;;;;16.23;7.60;;;;;;;;;;4994545;28;20061;-80
2022/10/12 01:01:37;;;;;;;18.45;9.32;;;;;;;;;;4994679;28;20025;-79
2022/10/12 01:04:05;;;;;;;20.95;8.65;;;;;;;;;;4995398;28;20072;-80
2022/10/12 01:06:31;;;;;;;14.30;8.10;;;;;;;;;;4998252;28;20038;-81
2022/10/12 01:08:57;;;;;;;15.15;7.63;;;;;;;;;;4998998;28;20042;-80
2022/10/12 01:11:22;;;;;;;16.13;8.15;;;;;;;;;;4998646;28;20599;-80
2022/10/12 01:13:47;;;;;;;22.25;8.55;;;;;;;;;;4998163;28;20647;-80
2022/10/12 01:16:18;;;;;;;22.63;8.48;;;;;;;;;;5001669;28;20448;-80
2022/10/12 01:19:38;;;;;;;13.27;7.70;;;;;;;;;;5004227;28;20420;-79
2022/10/12 01:22:10;;;;;;;23.60;7.80;;;;;;;;;;4963011;28;20062;-80
2022/10/12 01:24:50;;;;;;;;;;;;;;;;;;4995000;28;20038;-79
2022/10/12 01:27:50;;;;;;;11.85;6.72;;;;;;;;;;4993592;28;19968;-80
2022/10/12 01:30:20;;;;;;;13.20;7.45;;;;;;;;;;4986929;28;20042;-80
2022/10/12 01:33:04;;;;;;;22.50;8.13;;;;;;;;;;4991630;28;20037;-81
2022/10/12 01:35:42;;;;;;;21.23;9.02;;;;;;;;;;4992116;28;20034;-80
2022/10/12 01:38:32;;;;;;;14.52;8.43;;;;;;;;;;4990769;28;20502;-80
2022/10/12 01:41:16;;;;;;;15.77;7.70;;;;;;;;;;4993135;28;20034;-81
2022/10/12 01:43:43;;;;;;;20.58;8.45;;;;;;;;;;4994655;28;20427;-80
2022/10/12 01:46:11;;;;;;;12.43;7.68;;;;;;;;;;5003566;28;20037;-81
2022/10/12 01:48:38;;;;;;;16.23;8.50;;;;;;;;;;4995386;28;20033;-80
2022/10/12 01:51:03;;;;;;;17.70;8.55;;;;;;;;;;4994376;28;20132;-79
2022/10/12 01:54:00;;;;;;;18.42;9.23;;;;;;;;;;4996326;28;21943;-80
2022/10/12 01:56:50;;;;;;;13.57;7.50;;;;;;;;;;4997530;28;20034;-81
2022/10/12 01:59:43;;;;;;;16.02;7.80;;;;;;;;;;4977619;28;20133;-80
2022/10/12 02:02:37;;;;;;;15.73;8.05;;;;;;;;;;5004298;28;20109;-82
2022/10/12 02:05:22;;;;;;;17.85;7.70;;;;;;;;;;5014855;28;20034;-79
2022/10/12 02:08:00;;;;;;;14.10;8.40;;;;;;;;;;5013288;28;20010;-81
2022/10/12 02:10:34;;;;;;;12.02;7.05;;;;;;;;;;4998291;28;20026;-81
2022/10/12 02:13:05;;;;;;;13.45;7.97;;;;;;;;;;4998224;28;20030;-81
2022/10/12 02:15:32;;;;;;;16.00;8.02;;;;;;;;;;4997433;28;20049;-80
2022/10/12 02:17:58;;;;;;;13.98;7.10;;;;;;;;;;4997413;28;20037;-80
2022/10/12 02:20:26;;;;;;;14.38;7.47;;;;;;;;;;4996610;28;20053;-81
2022/10/12 02:22:53;;;;;;;14.93;7.35;;;;;;;;;;4995269;28;20109;-79
2022/10/12 02:25:20;;;;;;;16.35;7.93;;;;;;;;;;4994939;28;20030;-81
2022/10/12 02:27:58;;;;;;;17.00;8.13;;;;;;;;;;4997077;28;20105;-80
2022/10/12 02:30:24;;;;;;;12.82;7.47;;;;;;;;;;4993062;28;20417;-80
2022/10/12 02:33:11;;;;;;;15.75;9.48;;;;;;;;;;4987883;28;20117;-80
2022/10/12 02:35:47;;;;;;;17.48;9.18;;;;;;;;;;4990741;28;20091;-80
2022/10/12 02:38:19;;;;;;;15.88;8.88;;;;;;;;;;4992504;28;20083;-78
2022/10/12 02:40:53;;;;;;;16.02;8.10;;;;;;;;;;4989080;28;20083;-81
2022/10/12 02:43:24;;;;;;;14.98;8.30;;;;;;;;;;4995942;28;20034;-80
2022/10/12 02:45:50;;;;;;;14.60;8.23;;;;;;;;;;4998849;28;20117;-80
2022/10/12 02:48:21;;;;;;;17.13;9.27;;;;;;;;;;5007460;28;20026;-81
2022/10/12 02:50:50;;;;;;;34.72;9.57;;;;;;;;;;4986811;28;20029;-81
2022/10/12 02:53:16;;;;;;;15.52;8.43;;;;;;;;;;4990032;28;20038;-80
2022/10/12 02:55:49;;;;;;;15.25;9.57;;;;;;;;;;4995343;28;22355;-81
2022/10/12 02:58:15;;;;;;;13.30;8.25;;;;;;;;;;4994734;28;20413;-80
2022/10/12 03:00:41;;;;;;;16.52;8.70;;;;;;;;;;4998447;28;20535;-80
2022/10/12 03:03:06;;;;;;;14.18;8.85;;;;;;;;;;5001658;28;20028;-80
2022/10/12 03:05:31;;;;;;;19.55;9.60;;;;;;;;;;5001462;28;20037;-80
2022/10/12 03:07:57;;;;;;;18.80;9.80;;;;;;;;;;5001093;28;20361;-79
2022/10/12 03:10:22;;;;;;;24.92;11.52;;;;;;;;;;5000435;28;20022;-79
2022/10/12 03:12:47;;;;;;;24.90;11.63;;;;;;;;;;5005003;28;21065;-80
2022/10/12 03:15:13;;;;;;;24.55;11.50;;;;;;;;;;5009025;28;20396;-80
2022/10/12 03:17:38;;;;;;;20.98;11.38;;;;;;;;;;4999391;28;20396;-78
2022/10/12 03:20:04;;;;;;;23.50;11.05;;;;;;;;;;5000292;28;20497;-81
2022/10/12 03:22:29;;;;;;;17.67;10.63;;;;;;;;;;5000145;28;20030;-81
2022/10/12 03:24:55;;;;;;;26.38;11.27;;;;;;;;;;5000540;28;20029;-80
2022/10/12 03:27:21;;;;;;;19.45;11.13;;;;;;;;;;4999582;28;20014;-81
2022/10/12 03:29:46;;;;;;;23.85;10.23;;;;;;;;;;4997869;28;20123;-80
2022/10/12 03:32:11;;;;;;;18.70;10.60;;;;;;;;;;4998205;28;20018;-80
2022/10/12 03:34:37;;;;;;;17.63;10.00;;;;;;;;;;5000159;28;20060;-79
2022/10/12 03:37:02;;;;;;;20.80;10.73;;;;;;;;;;4997673;28;20049;-81
2022/10/12 03:39:27;;;;;;;17.65;10.23;;;;;;;;;;5000127;28;20040;-80
2022/10/12 03:41:53;;;;;;;22.23;10.40;;;;;;;;;;4992300;28;20045;-81
2022/10/12 03:44:18;;;;;;;21.90;9.95;;;;;;;;;;4993932;28;21537;-79
2022/10/12 03:46:43;;;;;;;32.20;10.07;;;;;;;;;;4997509;28;20026;-79
2022/10/12 03:49:09;;;;;;;19.40;9.43;;;;;;;;;;4997801;28;20029;-80
2022/10/12 03:51:34;;;;;;;25.95;11.07;;;;;;;;;;4997253;28;20038;-80
2022/10/12 03:53:59;;;;;;;14.68;8.85;;;;;;;;;;5000424;28;20511;-79
2022/10/12 03:56:25;;;;;;;18.42;9.52;;;;;;;;;;5000177;28;20113;-80
2022/10/12 03:58:50;;;;;;;18.33;9.40;;;;;;;;;;5001205;28;20029;-80
2022/10/12 04:01:15;;;;;;;22.88;9.35;;;;;;;;;;4998506;28;20392;-80
2022/10/12 04:03:40;;;;;;;16.77;9.07;;;;;;;;;;4999019;28;20022;-81
2022/10/12 04:06:06;;;;;;;17.60;9.13;;;;;;;;;;4996045;28;20064;-80
2022/10/12 04:08:31;;;;;;;16.20;9.63;;;;;;;;;;4997888;28;20026;-80
2022/10/12 04:10:57;;;;;;;14.35;9.27;;;;;;;;;;5003905;28;20116;-80
2022/10/12 04:13:23;;;;;;;13.50;9.20;;;;;;;;;;5005035;28;20025;-79
2022/10/12 04:15:48;;;;;;;16.90;9.52;;;;;;;;;;5005142;28;20040;-80
2022/10/12 04:18:14;;;;;;;15.10;9.40;;;;;;;;;;4998895;28;20673;-79
2022/10/12 04:20:39;;;;;;;14.02;8.40;;;;;;;;;;4994118;28;20034;-81
2022/10/12 04:23:05;;;;;;;13.80;8.98;;;;;;;;;;4994255;28;20471;-80
2022/10/12 04:25:30;;;;;;;16.40;8.85;;;;;;;;;;4991862;28;20026;-80
2022/10/12 04:27:55;;;;;;;27.13;9.55;;;;;;;;;;4991830;28;20492;-80
2022/10/12 04:30:21;;;;;;;15.07;8.75;;;;;;;;;;4992668;28;20041;-80
2022/10/12 04:32:46;;;;;;;15.30;9.57;;;;;;;;;;4990975;28;20036;-81
2022/10/12 04:35:11;;;;;;;14.45;8.45;;;;;;;;;;4995104;28;20635;-80
2022/10/12 04:37:37;;;;;;;15.65;7.70;;;;;;;;;;4993173;28;20558;-81
2022/10/12 04:40:03;;;;;;;18.95;9.50;;;;;;;;;;4989063;28;20084;-82
2022/10/12 04:42:28;;;;;;;16.27;8.55;;;;;;;;;;4990964;28;20029;-80
2022/10/12 04:44:53;;;;;;;16.10;8.80;;;;;;;;;;4992453;28;20034;-78
2022/10/12 04:47:19;;;;;;;13.57;8.20;;;;;;;;;;4994655;28;20064;-80
2022/10/12 04:49:44;;;;;;;17.55;9.52;;;;;;;;;;4995177;28;20045;-81
2022/10/12 04:52:10;;;;;;;14.80;9.07;;;;;;;;;;4994189;28;20079;-81
2022/10/12 04:54:35;;;;;;;17.67;9.10;;;;;;;;;;4996091;28;20037;-81
2022/10/12 04:57:01;;;;;;;19.33;9.70;;;;;;;;;;4993398;28;20037;-82
2022/10/12 04:59:26;;;;;;;16.80;9.32;;;;;;;;;;4997163;28;20030;-81
2022/10/12 05:01:53;;;;;;;19.90;10.35;;;;;;;;;;4996617;28;20502;-81
2022/10/12 05:04:18;;;;;;;20.02;9.20;;;;;;;;;;4994894;28;20041;-81
2022/10/12 05:06:44;;;;;;;15.38;9.10;;;;;;;;;;4996483;28;20411;-80
2022/10/12 05:09:09;;;;;;;18.15;9.40;;;;;;;;;;4997363;28;20116;-80
2022/10/12 05:11:34;;;;;;;14.32;8.40;;;;;;;;;;4993355;28;20036;-81
2022/10/12 05:14:00;;;;;;;20.80;9.63;;;;;;;;;;4998137;28;20029;-80
2022/10/12 05:16:25;;;;;;;18.48;8.48;;;;;;;;;;4994293;28;20034;-81
2022/10/12 05:18:50;;;;;;;16.77;9.25;;;;;;;;;;4993754;28;20040;-80
2022/10/12 05:21:16;;;;;;;20.25;9.10;;;;;;;;;;4993836;28;20034;-85
2022/10/12 05:23:41;;;;;;;14.25;8.23;;;;;;;;;;4997374;28;20045;-80
2022/10/12 05:26:07;;;;;;;12.63;7.60;;;;;;;;;;4998057;28;20750;-81
2022/10/12 05:28:32;;;;;;;18.00;9.40;;;;;;;;;;4995520;28;20026;-79
2022/10/12 05:30:58;;;;;;;14.63;8.48;;;;;;;;;;4994415;28;20072;-81
2022/10/12 05:33:23;;;;;;;18.50;8.88;;;;;;;;;;4994861;28;20677;-78
2022/10/12 05:35:49;;;;;;;21.95;9.02;;;;;;;;;;4997412;28;20021;-82
2022/10/12 05:38:14;;;;;;;20.52;9.60;;;;;;;;;;5006245;28;20064;-81
2022/10/12 05:40:39;;;;;;;18.60;9.80;;;;;;;;;;5002907;28;20117;-81
2022/10/12 05:43:05;;;;;;;15.48;9.35;;;;;;;;;;4999730;28;20034;-83
2022/10/12 05:45:30;;;;;;;17.60;9.80;;;;;;;;;;4995124;28;20038;-84
2022/10/12 05:47:55;;;;;;;21.27;9.43;;;;;;;;;;4998215;28;20095;-83
2022/10/12 05:50:21;;;;;;;16.52;9.32;;;;;;;;;;5001328;28;20037;-85
2022/10/12 05:52:47;;;;;;;26.98;10.15;;;;;;;;;;5004562;28;20117;-84
2022/10/12 05:55:12;;;;;;;18.00;9.07;;;;;;;;;;4999061;28;20022;-82
2022/10/12 05:57:38;;;;;;;14.48;9.35;;;;;;;;;;5003737;28;20041;-83
2022/10/12 06:00:08;;;;;;;18.15;10.70;;;;;;;;;;4997914;28;21071;-86
2022/10/12 06:02:34;;;;;;;18.98;9.85;;;;;;;;;;4995242;28;20029;-82
2022/10/12 06:04:59;;;;;;;15.95;8.95;;;;;;;;;;4994344;28;20037;-81
2022/10/12 06:07:25;;;;;;;15.88;9.57;;;;;;;;;;4986268;28;20038;-83
2022/10/12 06:09:50;;;;;;;15.52;9.30;;;;;;;;;;4981305;28;20049;-80
2022/10/12 06:12:16;;;;;;;20.75;10.00;;;;;;;;;;4986084;28;20387;-86
2022/10/12 06:14:41;;;;;;;20.90;9.98;;;;;;;;;;4995865;28;20057;-80
2022/10/12 06:17:08;;;;;;;16.15;9.70;;;;;;;;;;4997477;28;20057;-84
2022/10/12 06:19:34;;;;;;;17.38;9.88;;;;;;;;;;5000532;28;20036;-83
2022/10/12 06:21:59;;;;;;;18.25;9.23;;;;;;;;;;5002839;28;20652;-81
2022/10/12 06:24:24;;;;;;;21.88;9.15;;;;;;;;;;4995198;28;20716;-82
2022/10/12 06:26:50;;;;;;;21.67;9.38;;;;;;;;;;5008464;28;20038;-84
2022/10/12 06:29:16;;;;;;;25.20;10.30;;;;;;;;;;5007481;28;20028;-83
2022/10/12 06:31:41;;;;;;;20.38;9.35;;;;;;;;;;5007922;28;20464;-83
2022/10/12 06:34:07;;;;;;;18.52;9.23;;;;;;;;;;5011943;28;20032;-84
2022/10/12 06:36:32;;;;;;;14.55;8.77;;;;;;;;;;5002611;28;20050;-82
2022/10/12 06:38:57;;;;;;;16.08;9.48;;;;;;;;;;5011907;28;20113;-82
2022/10/12 06:41:23;;;;;;;19.85;8.68;;;;;;;;;;5008342;28;20029;-81
2022/10/12 06:43:48;;;;;;;24.00;9.48;;;;;;;;;;5015665;28;20048;-82
2022/10/12 06:46:13;;;;;;;18.55;9.00;;;;;;;;;;5015573;28;20113;-81
2022/10/12 06:48:39;;;;;;;23.25;10.30;;;;;;;;;;5018242;28;20033;-81
2022/10/12 06:51:05;;;;;;;21.95;10.32;;;;;;;;;;5005413;28;20461;-81
2022/10/12 06:53:31;;;;;;;27.90;10.57;;;;;;;;;;5002045;28;20053;-82
2022/10/12 06:55:57;;;;;;;19.83;10.88;;;;;;;;;;4994139;28;20029;-83
2022/10/12 06:58:23;;;;;;;18.85;9.57;;;;;;;;;;4993407;28;20025;-83
2022/10/12 07:00:48;;;;;;;28.80;11.40;;;;;;;;;;5006008;28;20029;-84
2022/10/12 07:03:13;;;;;;;22.15;11.40;;;;;;;;;;5018144;28;20056;-83
2022/10/12 07:05:39;;;;;;;22.75;11.30;;;;;;;;;;5017551;28;20082;-85
2022/10/12 07:08:04;;;;;;;19.45;11.35;;;;;;;;;;5017273;28;20022;-83
2022/10/12 07:10:29;;;;;;;17.40;10.38;;;;;;;;;;5024001;28;20025;-83
2022/10/12 07:12:55;;;;;;;25.50;11.23;;;;;;;;;;5033461;28;20025;-84
2022/10/12 07:15:20;;;;;;;23.10;11.48;;;;;;;;;;5016883;28;20108;-84
2022/10/12 07:17:46;;;;;;;27.48;11.50;;;;;;;;;;5025098;28;20060;-83
2022/10/12 07:20:11;;;;;;;28.25;12.70;;;;;;;;;;5016149;28;20104;-84
2022/10/12 07:22:36;;;;;;;19.77;10.32;;;;;;;;;;5013255;28;20018;-83
2022/10/12 07:25:02;;;;;;;29.27;11.63;;;;;;;;;;5024681;28;20108;-83
2022/10/12 07:27:27;;;;;;;25.85;12.63;;;;;;;;;;5043497;28;20034;-79
2022/10/12 07:29:52;;;;;;;32.95;11.98;;;;;;;;;;5039578;28;20044;-79
2022/10/12 07:32:18;;;;;;;28.13;12.40;;;;;;;;;;5030813;28;20026;-82
2022/10/12 07:34:43;;;;;;;22.05;11.45;;;;;;;;;;5017883;28;20080;-83
2022/10/12 07:37:09;;;;;;;27.80;12.93;;;;;;;;;;5013049;28;20384;-83
2022/10/12 07:39:34;;;;;;;26.13;12.18;;;;;;;;;;5015675;28;20029;-81
2022/10/12 07:42:00;;;;;;;33.92;13.65;;;;;;;;;;5020843;28;20089;-86
2022/10/12 07:44:25;;;;;;;25.27;12.88;;;;;;;;;;5023674;28;20025;-84
2022/10/12 07:46:51;;;;;;;22.40;11.57;;;;;;;;;;5021786;28;20399;-84
2022/10/12 07:49:17;;;;;;;24.23;11.57;;;;;;;;;;5018333;28;20026;-84
2022/10/12 07:51:43;;;;;;;23.08;11.48;;;;;;;;;;5018058;28;20044;-84
2022/10/12 07:54:08;;;;;;;20.33;11.98;;;;;;;;;;5023437;28;20025;-84
2022/10/12 07:56:34;;;;;;;23.42;12.52;;;;;;;;;;5035745;28;20027;-84
2022/10/12 07:59:00;;;;;;;24.20;12.52;;;;;;;;;;5041950;28;20139;-86
2022/10/12 08:01:28;;;;;;;21.50;11.95;;;;;;;;;;5027568;28;20022;-86
2022/10/12 08:03:54;;;;;;;24.35;13.10;;;;;;;;;;5035790;28;20034;-86
2022/10/12 08:06:23;;;;;;;23.70;12.10;;;;;;;;;;5040549;28;20022;-86
2022/10/12 08:08:48;;;;;;;29.15;12.65;;;;;;;;;;5042057;28;20360;-87
2022/10/12 08:11:14;;;;;;;26.77;12.13;;;;;;;;;;5040740;28;20036;-86
2022/10/12 08:13:40;;;;;;;27.20;12.60;;;;;;;;;;5040292;28;20391;-85
2022/10/12 08:16:10;;;;;;;29.13;13.20;;;;;;;;;;5040009;28;20030;-86
2022/10/12 08:18:35;;;;;;;23.38;12.73;;;;;;;;;;5033681;28;20556;-84
2022/10/12 08:21:05;;;;;;;26.17;11.70;;;;;;;;;;5037612;28;20025;-84
2022/10/12 08:23:31;;;;;;;31.67;12.38;;;;;;;;;;5034447;28;20480;-84
2022/10/12 08:25:57;;;;;;;21.63;11.38;;;;;;;;;;5030490;28;20076;-84
2022/10/12 08:28:23;;;;;;;23.80;12.05;;;;;;;;;;5018918;28;20025;-84
2022/10/12 08:30:49;;;;;;;26.58;11.88;;;;;;;;;;5018033;28;20101;-83
2022/10/12 08:33:15;;;;;;;27.48;12.15;;;;;;;;;;5019676;28;20052;-84
2022/10/12 08:35:41;;;;;;;28.75;11.52;;;;;;;;;;5037339;28;20022;-83
2022/10/12 08:38:08;;;;;;;20.90;12.35;;;;;;;;;;5036975;28;20033;-82
2022/10/12 08:40:41;;;;;;;24.98;12.93;;;;;;;;;;5035685;28;20061;-83
2022/10/12 08:43:27;;;;;;;22.00;11.43;;;;;;;;;;5029023;28;20045;-84
2022/10/12 08:45:54;;;;;;;20.90;10.57;;;;;;;;;;5032309;28;20041;-83
2022/10/12 08:48:32;;;;;;;23.27;11.68;;;;;;;;;;5015755;28;20033;-82
2022/10/12 08:51:13;;;;;;;20.65;10.70;;;;;;;;;;5015766;28;20022;-83
2022/10/12 08:54:10;;;;;;;22.88;12.10;;;;;;;;;;5018488;28;20026;-83
2022/10/12 08:56:35;;;;;;;22.27;11.55;;;;;;;;;;5028207;28;20033;-84
2022/10/12 08:59:02;;;;;;;23.38;11.55;;;;;;;;;;5028233;28;20032;-84
2022/10/12 09:01:41;;;;;;;20.02;12.05;;;;;;;;;;5019532;28;20025;-84
2022/10/12 09:04:36;;;;;;;23.98;10.98;;;;;;;;;;5014692;28;20024;-83
2022/10/12 09:07:17;;;;;;;23.67;12.05;;;;;;;;;;5037087;28;20033;-82
2022/10/12 09:10:00;;;;;;;18.50;11.05;;;;;;;;;;5022341;28;20025;-83
2022/10/12 09:12:51;;;;;;;28.58;10.82;;;;;;;;;;5034247;28;20021;-82
2022/10/12 09:15:23;;;;;;;23.77;10.10;;;;;;;;;;5034860;28;20061;-83
2022/10/12 09:17:54;;;;;;;19.63;10.95;;;;;;;;;;5035594;28;20042;-84
2022/10/12 09:20:34;;;;;;;22.80;10.60;;;;;;;;;;5031248;28;20021;-81
2022/10/12 09:23:06;;;;;;;21.67;11.13;;;;;;;;;;5037192;28;20063;-85
2022/10/12 09:25:32;;;;;;;18.00;10.75;;;;;;;;;;5029986;28;20124;-86
2022/10/12 09:28:12;;;;;;;22.17;10.75;;;;;;;;;;5039103;28;20060;-86
2022/10/12 09:30:42;;;;;;;22.88;10.80;;;;;;;;;;5037879;28;20091;-84
2022/10/12 09:33:27;;;;;;;20.42;10.13;;;;;;;;;;5032418;28;20025;-84
2022/10/12 09:35:54;;;;;;;21.35;9.43;;;;;;;;;;5038741;28;20081;-84
2022/10/12 09:38:20;;;;;;;21.15;9.93;;;;;;;;;;5037163;28;20026;-84
2022/10/12 09:40:46;;;;;;;20.77;10.38;;;;;;;;;;5037534;28;20021;-83
2022/10/12 09:43:13;;;;;;;25.75;9.98;;;;;;;;;;5038049;28;20492;-84
2022/10/12 09:45:39;;;;;;;20.10;9.38;;;;;;;;;;5037920;28;20057;-84
2022/10/12 09:48:14;;;;;;;17.83;9.13;;;;;;;;;;5038688;28;20475;-84
2022/10/12 09:51:01;;;;;;;20.98;10.15;;;;;;;;;;5034613;28;20026;-82
2022/10/12 09:53:33;;;;;;;18.23;8.55;;;;;;;;;;5037030;28;20033;-84
2022/10/12 09:56:08;;;;;;;20.80;8.93;;;;;;;;;;5039004;28;20049;-85
2022/10/12 09:59:01;;;;;;;14.90;8.43;;;;;;;;;;5034308;28;20120;-83
2022/10/12 10:01:34;;;;;;;16.73;8.63;;;;;;;;;;5010349;28;20041;-84
2022/10/12 10:04:23;;;;;;;20.70;7.97;;;;;;;;;;5031818;28;20051;-83
2022/10/12 10:06:49;;;;;;;16.83;7.88;;;;;;;;;;5005430;28;20044;-86
2022/10/12 10:09:35;;;;;;;17.02;8.32;;;;;;;;;;5019302;28;20081;-85
2022/10/12 10:12:30;;;;;;;18.23;8.85;;;;;;;;;;5018021;28;20084;-84
2022/10/12 10:14:57;;;;;;;16.17;7.65;;;;;;;;;;5033078;28;20010;-83
2022/10/12 10:17:28;;;;;;;15.18;7.47;;;;;;;;;;5017526;28;20081;-84
2022/10/12 10:19:56;;;;;;;16.23;6.75;;;;;;;;;;5017226;28;20029;-84
2022/10/12 10:22:22;;;;;;;11.13;7.13;;;;;;;;;;5016456;28;20032;-82
2022/10/12 10:25:17;;;;;;;22.85;7.55;;;;;;;;;;5012653;28;20072;-82
2022/10/12 10:27:43;;;;;;;16.42;7.78;;;;;;;;;;5017305;28;20041;-86
2022/10/12 10:30:16;;;;;;;16.15;8.00;;;;;;;;;;5040335;28;20022;-83
2022/10/12 10:32:43;;;;;;;13.35;7.70;;;;;;;;;;5036663;28;20017;-86
2022/10/12 10:35:11;;;;;;;14.68;8.00;;;;;;;;;;5038396;28;20013;-84
2022/10/12 10:37:47;;;;;;;14.57;7.38;;;;;;;;;;5036882;28;20396;-84
2022/10/12 10:40:27;;;;;;;18.08;7.90;;;;;;;;;;5021751;28;20030;-85
2022/10/12 10:42:55;;;;;;;12.25;6.90;;;;;;;;;;5017705;28;20083;-84
2022/10/12 10:45:43;;;;;;;14.95;8.13;;;;;;;;;;5016088;28;20037;-83
2022/10/12 10:48:13;;;;;;;14.02;7.43;;;;;;;;;;5017424;28;20024;-84
2022/10/12 10:50:42;;;;;;;15.10;7.85;;;;;;;;;;5017184;28;20032;-85
2022/10/12 10:53:23;;;;;;;18.27;7.18;;;;;;;;;;5019018;28;20036;-84
2022/10/12 10:55:58;;;;;;;17.35;7.90;;;;;;;;;;5038267;28;20839;-86
2022/10/12 10:58:46;;;;;;;16.58;7.32;;;;;;;;;;5031215;28;20047;-84
2022/10/12 11:01:37;;;;;;;16.02;7.38;;;;;;;;;;5021975;28;20034;-85
2022/10/12 11:04:16;;;;;;;14.80;7.30;;;;;;;;;;5035890;28;20033;-84
2022/10/12 11:06:45;;;;;;;16.15;7.07;;;;;;;;;;5038118;28;20079;-84
2022/10/12 11:09:19;;;;;;;15.27;7.82;;;;;;;;;;5038773;28;20064;-83
2022/10/12 11:11:49;;;;;;;14.98;7.72;;;;;;;;;;5029558;28;20407;-84
2022/10/12 11:14:18;;;;;;;15.18;6.90;;;;;;;;;;5019548;28;20237;-83
2022/10/12 11:17:00;;;;;;;15.75;7.50;;;;;;;;;;5024198;28;20085;-84
2022/10/12 11:19:28;;;;;;;15.65;6.78;;;;;;;;;;5022792;28;20044;-83
2022/10/12 11:21:59;;;;;;;12.93;7.43;;;;;;;;;;5040033;28;20029;-83
2022/10/12 11:24:49;;;;;;;18.48;6.60;;;;;;;;;;5027551;28;20359;-81
2022/10/12 11:27:27;;;;;;;15.38;7.22;;;;;;;;;;5046695;28;20101;-83
2022/10/12 11:29:57;;;;;;;18.50;6.13;;;;;;;;;;5058731;28;20013;-81
2022/10/12 11:32:26;;;;;;;13.10;6.22;;;;;;;;;;5044097;28;20045;-85
2022/10/12 11:34:56;;;;;;;14.00;7.43;;;;;;;;;;5038913;28;20392;-85
2022/10/12 11:37:31;;;;;;;18.10;7.40;;;;;;;;;;5033528;28;20025;-85
2022/10/12 11:39:59;;;;;;;15.93;7.53;;;;;;;;;;5036667;28;20029;-83
2022/10/12 11:42:33;;;;;;;14.13;7.22;;;;;;;;;;5009480;28;20019;-81
2022/10/12 11:45:04;;;;;;;15.02;6.75;;;;;;;;;;5019504;28;20057;-83
2022/10/12 11:47:42;;;;;;;20.38;6.95;;;;;;;;;;5022153;28;20021;-83
2022/10/12 11:50:38;;;;;;;11.70;6.30;;;;;;;;;;5016751;28;20032;-84
2022/10/12 11:53:22;;;;;;;13.20;6.28;;;;;;;;;;5004871;28;20030;-81
2022/10/12 11:56:09;;;;;;;9.30;6.15;;;;;;;;;;5020520;28;20025;-85
2022/10/12 11:58:43;;;;;;;14.65;6.78;;;;;;;;;;5039299;28;20487;-84
2022/10/12 12:01:38;;;;;;;14.35;6.20;;;;;;;;;;5025117;28;20072;-83
2022/10/12 12:04:13;;;;;;;11.60;5.70;;;;;;;;;;5034384;28;20471;-82
2022/10/12 12:06:48;;;;;;;13.25;6.25;;;;;;;;;;5027442;28;20040;-82
2022/10/12 12:09:28;;;;;;;16.77;6.90;;;;;;;;;;5012054;28;20021;-82
2022/10/12 12:12:07;;;;;;;11.88;6.45;;;;;;;;;;5018338;28;20056;-81
2022/10/12 12:14:33;;;;;;;17.55;6.00;;;;;;;;;;5012938;28;20030;-82
2022/10/12 12:17:21;;;;;;;8.13;4.80;;;;;;;;;;5019931;28;21491;-81
2022/10/12 12:19:50;;;;;;;15.18;6.25;;;;;;;;;;5005037;28;20034;-80
2022/10/12 12:22:44;;;;;;;11.30;5.70;;;;;;;;;;5022189;28;20022;-83
2022/10/12 12:25:09;;;;;;;14.05;5.70;;;;;;;;;;5021817;28;20091;-82
2022/10/12 12:27:47;;;;;;;14.48;6.35;;;;;;;;;;5033721;28;20033;-82
2022/10/12 12:30:18;;;;;;;12.23;6.57;;;;;;;;;;5035803;28;20025;-81
2022/10/12 12:32:49;;;;;;;12.18;6.05;;;;;;;;;;5023465;28;20030;-83
2022/10/12 12:35:37;;;;;;;12.70;5.78;;;;;;;;;;5007983;28;20639;-82
2022/10/12 12:38:16;;;;;;;10.68;5.95;;;;;;;;;;4995910;28;20041;-83
2022/10/12 12:41:04;;;;;;;8.85;5.90;;;;;;;;;;4994273;28;20084;-82
2022/10/12 12:43:29;;;;;;;13.23;5.97;;;;;;;;;;4993789;28;20033;-83
2022/10/12 12:46:03;;;;;;;10.95;5.65;;;;;;;;;;4997396;28;20116;-84
2022/10/12 12:48:51;;;;;;;11.73;5.05;;;;;;;;;;4992510;28;20030;-82
2022/10/12 12:51:23;;;;;;;12.45;5.72;;;;;;;;;;4985840;28;20104;-82
2022/10/12 12:53:58;;;;;;;12.52;5.90;;;;;;;;;;5027292;28;20029;-83
2022/10/12 12:56:49;;;;;;;9.98;5.45;;;;;;;;;;5037144;28;20511;-82
2022/10/12 12:59:33;;;;;;;11.55;5.72;;;;;;;;;;5023192;28;20092;-84
2022/10/12 13:02:35;;;;;;;14.32;6.57;;;;;;;;;;5017099;28;20388;-83
2022/10/12 13:05:19;;;;;;;17.45;6.38;;;;;;;;;;5027836;28;20049;-83
2022/10/12 13:07:51;;;;;;;11.55;5.63;;;;;;;;;;5034987;28;20029;-81
2022/10/12 13:10:38;;;;;;;12.82;6.00;;;;;;;;;;5037529;28;20036;-82
2022/10/12 13:13:38;;;;;;;15.30;5.90;;;;;;;;;;5041092;28;20029;-82
2022/10/12 13:16:13;;;;;;;12.52;5.95;;;;;;;;;;5036935;28;20506;-83
2022/10/12 13:18:58;;;;;;;11.60;5.63;;;;;;;;;;5039761;28;20116;-83
2022/10/12 13:21:28;;;;;;;14.27;6.57;;;;;;;;;;5033764;28;20021;-82
2022/10/12 13:24:04;;;;;;;8.27;5.40;;;;;;;;;;5035245;28;20077;-82
2022/10/12 13:26:31;;;;;;;13.88;5.88;;;;;;;;;;5040928;28;20029;-83
2022/10/12 13:29:00;;;;;;;10.93;5.53;;;;;;;;;;5033317;28;20037;-83
2022/10/12 13:31:39;;;;;;;12.52;4.88;;;;;;;;;;5039086;28;20051;-83
2022/10/12 13:34:11;;;;;;;11.20;6.00;;;;;;;;;;5035643;28;20106;-84
2022/10/12 13:36:55;;;;;;;16.55;5.32;;;;;;;;;;5038855;28;20024;-83
2022/10/12 13:39:21;;;;;;;13.23;5.20;;;;;;;;;;5038172;28;20036;-83
2022/10/12 13:41:50;;;;;;;10.57;5.07;;;;;;;;;;5037343;28;20021;-83
2022/10/12 13:44:24;;;;;;;9.88;5.53;;;;;;;;;;5035920;28;20025;-83
2022/10/12 13:47:00;;;;;;;8.95;5.72;;;;;;;;;;5037200;28;20056;-83
2022/10/12 13:49:28;;;;;;;10.88;5.10;;;;;;;;;;5036195;28;20064;-83
2022/10/12 13:52:13;;;;;;;10.25;4.10;;;;;;;;;;5021786;28;20412;-83
2022/10/12 13:54:46;;;;;;;9.45;4.03;;;;;;;;;;4995258;28;20765;-83
2022/10/12 13:57:32;;;;;;;10.82;4.72;;;;;;;;;;4991160;28;20097;-83
2022/10/12 14:00:02;;;;;;;8.93;4.57;;;;;;;;;;4991882;28;20071;-81
2022/10/12 14:02:29;;;;;;;13.02;4.70;;;;;;;;;;5006593;28;20022;-83
2022/10/12 14:04:57;;;;;;;10.60;4.78;;;;;;;;;;5035282;28;20107;-82
2022/10/12 14:07:27;;;;;;;8.30;4.53;;;;;;;;;;5036050;28;20036;-83
2022/10/12 14:10:01;;;;;;;11.48;4.07;;;;;;;;;;5036657;28;20036;-83
2022/10/12 14:12:29;;;;;;;7.55;4.63;;;;;;;;;;5036387;28;20431;-82
2022/10/12 14:14:55;;;;;;;9.50;4.47;;;;;;;;;;5036209;28;20029;-82
2022/10/12 14:17:21;;;;;;;9.55;4.85;;;;;;;;;;5036065;28;20037;-81
2022/10/12 14:19:48;;;;;;;15.40;4.95;;;;;;;;;;5016498;28;20026;-82
2022/10/12 14:22:31;;;;;;;7.65;3.58;;;;;;;;;;5016166;28;20056;-82
2022/10/12 14:25:17;;;;;;;11.73;4.22;;;;;;;;;;5013876;28;20402;-82
2022/10/12 14:27:42;;;;;;;8.10;3.97;;;;;;;;;;5014837;28;20048;-81
2022/10/12 14:30:21;;;;;;;8.80;3.72;;;;;;;;;;5036045;28;20029;-82
2022/10/12 14:32:48;;;;;;;8.30;4.20;;;;;;;;;;5019696;28;20026;-82
2022/10/12 14:35:21;;;;;;;8.55;3.60;;;;;;;;;;5021456;28;20087;-83
2022/10/12 14:37:47;;;;;;;6.15;3.65;;;;;;;;;;5017781;28;20037;-82
2022/10/12 14:40:31;;;;;;;7.43;3.58;;;;;;;;;;5001072;28;20072;-83
2022/10/12 14:43:03;;;;;;;8.32;4.20;;;;;;;;;;5001715;28;20041;-84
2022/10/12 14:45:29;;;;;;;5.07;3.42;;;;;;;;;;5000300;28;20030;-82
2022/10/12 14:47:55;;;;;;;7.15;4.22;;;;;;;;;;4996992;28;20034;-84
2022/10/12 14:50:21;;;;;;;9.60;3.70;;;;;;;;;;4996588;28;20029;-81
2022/10/12 14:52:49;;;;;;;8.45;4.40;;;;;;;;;;5016324;28;20076;-84